Time;durP1;ratioP1;P1;durP2;ratioP2;P2;SDS_P1;SDS_P2;PMS_P1;PMS_P2;Temp;Humidity;BMP_temperature;BMP_pressure;BME280_temperature;BME280_humidity;BME280_pressure;Samples;Min_cycle;Max_cycle;Signal;HPM_P1;HPM_P2
2023/03/02 00:02:22;;;;;;;41.43;17.10;;;;;;;-145.69;100.00;52537.47;5117367;28;20225;-83
2023/03/02 00:04:51;;;;;;;39.27;15.97;;;;;;;-145.69;100.00;52563.22;5117775;28;20196;-81
2023/03/02 00:07:22;;;;;;;38.70;16.80;;;;;;;-145.69;100.00;52573.13;5117800;28;20296;-82
2023/03/02 00:09:50;;;;;;;44.83;17.43;;;;;;;-145.69;100.00;52586.97;5119387;28;20554;-82
2023/03/02 00:12:19;;;;;;;39.83;17.87;;;;;;;-145.69;100.00;52555.28;5118458;28;20212;-82
2023/03/02 00:14:46;;;;;;;41.97;17.27;;;;;;;-145.69;100.00;52551.31;5118545;28;20266;-82
2023/03/02 00:17:12;;;;;;;40.83;17.23;;;;;;;-145.69;100.00;52539.44;5118369;28;20232;-81
2023/03/02 00:19:39;;;;;;;42.83;18.17;;;;;;;-145.69;100.00;52545.38;5117642;28;20201;-82
2023/03/02 00:22:07;;;;;;;43.53;18.20;;;;;;;-145.69;100.00;52567.16;5118063;28;20225;-82
2023/03/02 00:24:34;;;;;;;42.33;18.20;;;;;;;-145.69;100.00;52551.31;5117517;28;20186;-82
2023/03/02 00:27:02;;;;;;;50.77;20.13;;;;;;;-145.69;100.00;52563.22;5118084;28;20200;-81
2023/03/02 00:29:28;;;;;;;48.80;19.27;;;;;;;-145.69;100.00;52525.59;5117269;28;20201;-82
2023/03/02 00:31:57;;;;;;;46.93;18.63;;;;;;;-145.69;100.00;52521.63;5117990;28;20213;-82
2023/03/02 00:34:23;;;;;;;47.20;18.37;;;;;;;-145.69;100.00;52539.44;5118706;28;20658;-82
2023/03/02 00:36:51;;;;;;;47.60;18.67;;;;;;;-145.69;100.00;52535.47;5118028;28;20250;-82
2023/03/02 00:39:18;;;;;;;52.07;19.67;;;;;;;-145.69;100.00;52535.47;5118120;28;20202;-82
2023/03/02 00:41:46;;;;;;;50.43;20.00;;;;;;;-145.69;100.00;52523.59;5116968;28;20703;-82
2023/03/02 00:44:16;;;;;;;49.93;19.07;;;;;;;-145.69;100.00;52559.25;5117061;28;20202;-82
2023/03/02 00:46:45;;;;;;;50.80;19.43;;;;;;;-145.69;100.00;52551.31;5116516;28;20278;-82
2023/03/02 00:49:12;;;;;;;48.90;20.30;;;;;;;-145.69;100.00;52537.47;5116398;28;20197;-82
2023/03/02 00:51:39;;;;;;;44.33;18.73;;;;;;;-145.69;100.00;52545.38;5116378;28;20292;-82
2023/03/02 00:54:05;;;;;;;47.77;19.27;;;;;;;-145.69;100.00;52559.25;5115970;28;20734;-82
2023/03/02 00:56:32;;;;;;;48.97;20.93;;;;;;;-145.69;100.00;52541.44;5116280;28;20198;-81
2023/03/02 00:58:58;;;;;;;68.97;24.23;;;;;;;-145.69;100.00;52529.53;5115652;28;20783;-82
2023/03/02 01:01:28;;;;;;;54.20;20.47;;;;;;;-145.69;100.00;52551.31;5116147;28;20232;-82
2023/03/02 01:03:57;;;;;;;48.30;18.50;;;;;;;-145.69;100.00;52521.63;5114716;28;20229;-81
2023/03/02 01:06:23;;;;;;;49.70;19.80;;;;;;;-145.69;100.00;52535.47;5115441;28;20201;-81
2023/03/02 01:08:52;;;;;;;54.43;20.70;;;;;;;-145.69;100.00;52577.06;5115363;28;20659;-82
2023/03/02 01:11:21;;;;;;;47.60;20.17;;;;;;;-145.69;100.00;52555.28;5115775;28;20201;-81
2023/03/02 01:13:49;;;;;;;55.60;19.33;;;;;;;-145.69;100.00;52559.25;5114155;28;20201;-81
2023/03/02 01:16:15;;;;;;;51.60;20.77;;;;;;;-145.69;100.00;52545.38;5114143;28;20590;-81
2023/03/02 01:18:43;;;;;;;48.07;20.20;;;;;;;-145.69;100.00;52555.28;5115063;28;20204;-82
2023/03/02 01:21:12;;;;;;;49.10;20.00;;;;;;;-145.69;100.00;52547.38;5115132;28;20208;-81
2023/03/02 01:23:39;;;;;;;48.50;20.17;;;;;;;-145.69;100.00;52543.41;5115176;28;20229;-81
2023/03/02 01:26:07;;;;;;;46.97;19.17;;;;;;;-145.69;100.00;52539.44;5115209;28;20194;-82
2023/03/02 01:28:33;;;;;;;50.20;21.13;;;;;;;-145.69;100.00;52557.28;5115043;28;20212;-82
2023/03/02 01:31:03;;;;;;;56.33;21.13;;;;;;;-145.69;100.00;52519.63;5115232;28;20193;-81
2023/03/02 01:33:30;;;;;;;53.03;21.87;;;;;;;-145.69;100.00;52547.38;5114744;28;20277;-81
2023/03/02 01:35:58;;;;;;;57.13;21.70;;;;;;;-145.69;100.00;52551.31;5114887;28;20201;-81
2023/03/02 01:38:24;;;;;;;60.93;21.23;;;;;;;-145.69;100.00;52547.38;5115031;28;20205;-81
2023/03/02 01:40:51;;;;;;;58.87;20.87;;;;;;;-145.69;100.00;52543.41;5114872;28;20225;-81
2023/03/02 01:43:17;;;;;;;50.20;19.87;;;;;;;-145.69;100.00;52563.22;5114804;28;20229;-81
2023/03/02 01:45:51;;;;;;;57.10;20.57;;;;;;;-145.69;100.00;52557.28;5115005;28;20647;-81
2023/03/02 01:48:22;;;;;;;53.33;21.53;;;;;;;-145.69;100.00;52539.44;5114886;28;20231;-81
2023/03/02 01:50:49;;;;;;;50.87;19.93;;;;;;;-145.69;100.00;52531.53;5114910;28;20185;-81
2023/03/02 01:53:17;;;;;;;50.77;19.93;;;;;;;-145.69;100.00;52583.00;5113807;28;20204;-81
2023/03/02 01:55:45;;;;;;;53.10;20.33;;;;;;;-145.69;100.00;52541.44;5114532;28;20197;-81
2023/03/02 01:58:15;;;;;;;55.27;21.07;;;;;;;-145.69;100.00;52547.38;5115226;28;20201;-81
2023/03/02 02:00:42;;;;;;;54.27;21.07;;;;;;;-145.69;100.00;52571.13;5114744;28;20224;-81
2023/03/02 02:03:12;;;;;;;51.03;19.27;;;;;;;-145.69;100.00;52557.28;5114081;28;20312;-81
2023/03/02 02:05:43;;;;;;;44.40;20.83;;;;;;;-145.69;100.00;52559.25;5114680;28;20208;-80
2023/03/02 02:08:10;;;;;;;49.67;20.13;;;;;;;-145.69;100.00;52551.31;5114579;28;20201;-81
2023/03/02 02:10:41;;;;;;;56.13;21.30;;;;;;;-145.69;100.00;52557.28;5114670;28;20280;-81
2023/03/02 02:13:10;;;;;;;54.43;21.07;;;;;;;-145.69;100.00;52553.31;5114670;28;20204;-81
2023/03/02 02:15:39;;;;;;;55.37;20.97;;;;;;;-145.69;100.00;52555.28;5114395;28;20193;-81
2023/03/02 02:18:07;;;;;;;54.60;21.10;;;;;;;-145.69;100.00;52529.53;5113750;28;20197;-81
2023/03/02 02:20:37;;;;;;;53.27;20.80;;;;;;;-145.69;100.00;52569.16;5114593;28;20582;-82
2023/03/02 02:23:19;;;;;;;53.37;20.83;;;;;;;-145.69;100.00;52513.69;5114212;28;20233;-81
2023/03/02 02:25:58;;;;;;;50.00;22.10;;;;;;;-145.69;100.00;52535.47;5114021;28;20197;-81
2023/03/02 02:28:30;;;;;;;49.20;21.23;;;;;;;-145.69;100.00;52581.03;5114296;28;20189;-81
2023/03/02 02:31:05;;;;;;;51.57;20.77;;;;;;;-145.69;100.00;52545.38;5113654;28;20204;-81
2023/03/02 02:33:32;;;;;;;55.73;22.87;;;;;;;-145.69;100.00;52563.22;5114065;28;20189;-81
2023/03/02 02:36:04;;;;;;;59.17;27.60;;;;;;;-145.69;100.00;52547.38;5113083;28;20466;-81
2023/03/02 02:38:32;;;;;;;50.73;21.50;;;;;;;-145.69;100.00;52567.16;5113797;28;20659;-81
2023/03/02 02:41:03;;;;;;;50.77;22.07;;;;;;;-145.69;100.00;52515.69;5113776;28;20237;-81
2023/03/02 02:43:32;;;;;;;55.73;21.47;;;;;;;-145.69;100.00;52555.28;5114064;28;20324;-81
2023/03/02 02:46:00;;;;;;;52.00;21.07;;;;;;;-145.69;100.00;52571.13;5113874;28;20196;-81
2023/03/02 02:48:31;;;;;;;51.43;22.07;;;;;;;-145.69;100.00;52543.41;5114110;28;20857;-81
2023/03/02 02:51:02;;;;;;;53.37;21.53;;;;;;;-145.69;100.00;52527.56;5113742;28;20197;-81
2023/03/02 02:53:34;;;;;;;59.83;23.23;;;;;;;-145.69;100.00;52551.31;5113864;28;20233;-82
2023/03/02 02:56:05;;;;;;;57.50;21.57;;;;;;;-145.69;100.00;52563.22;5113766;28;20189;-80
2023/03/02 02:58:35;;;;;;;60.40;23.00;;;;;;;-145.69;100.00;52541.44;5113858;28;20656;-80
2023/03/02 03:01:02;;;;;;;57.90;22.30;;;;;;;-145.69;100.00;52507.75;5113730;28;20204;-81
2023/03/02 03:03:30;;;;;;;50.43;21.63;;;;;;;-145.69;100.00;52537.47;5113350;28;20607;-82
2023/03/02 03:05:58;;;;;;;56.57;22.00;;;;;;;-145.69;100.00;52529.53;5113899;28;20261;-80
2023/03/02 03:09:02;;;;;;;58.07;23.07;;;;;;;-145.69;100.00;52583.00;5111926;28;20199;-81
2023/03/02 03:11:32;;;;;;;62.43;22.93;;;;;;;-145.69;100.00;52563.22;5103364;28;20614;-81
2023/03/02 03:14:06;;;;;;;57.30;22.57;;;;;;;-145.69;100.00;52559.25;5113432;28;20206;-81
2023/03/02 03:16:35;;;;;;;54.50;21.77;;;;;;;-145.69;100.00;52559.25;5113897;28;20560;-81
2023/03/02 03:19:10;;;;;;;61.37;22.10;;;;;;;-145.69;100.00;52537.47;5113832;28;20694;-81
2023/03/02 03:21:41;;;;;;;52.47;22.20;;;;;;;-145.69;100.00;52519.63;5113798;28;20203;-82
2023/03/02 03:24:10;;;;;;;52.77;21.60;;;;;;;-145.69;100.00;52505.78;5113012;28;20225;-81
2023/03/02 03:26:38;;;;;;;50.83;21.03;;;;;;;-145.69;100.00;52579.06;5093505;28;20206;-81
2023/03/02 03:29:05;;;;;;;57.00;20.93;;;;;;;-145.69;100.00;52571.13;5097651;28;20205;-81
2023/03/02 03:31:33;;;;;;;51.87;21.33;;;;;;;-145.69;100.00;52573.13;5112718;28;20200;-81
2023/03/02 03:34:01;;;;;;;56.37;22.07;;;;;;;-145.69;100.00;52533.50;5117083;28;20223;-82
2023/03/02 03:36:30;;;;;;;58.00;21.97;;;;;;;-145.69;100.00;52541.44;5117390;28;20205;-81
2023/03/02 03:38:57;;;;;;;55.23;22.97;;;;;;;-145.69;100.00;52535.47;5117320;28;20197;-81
2023/03/02 03:41:25;;;;;;;58.77;23.37;;;;;;;-145.69;100.00;52523.59;5117263;28;20229;-81
2023/03/02 03:43:53;;;;;;;60.50;22.10;;;;;;;-145.69;100.00;52527.56;5117294;28;20246;-81
2023/03/02 03:46:24;;;;;;;55.20;22.33;;;;;;;-145.69;100.00;52537.47;5117434;28;20205;-81
2023/03/02 03:48:52;;;;;;;57.27;22.47;;;;;;;-145.69;100.00;52541.44;5117309;28;20600;-81
2023/03/02 03:51:22;;;;;;;57.07;21.97;;;;;;;-145.69;100.00;52571.13;5117042;28;20287;-81
2023/03/02 03:53:58;;;;;;;53.13;21.53;;;;;;;-145.69;100.00;52559.25;5117057;28;20201;-80
2023/03/02 03:56:25;;;;;;;54.40;22.07;;;;;;;-145.69;100.00;52565.19;5116791;28;20551;-80
2023/03/02 03:59:04;;;;;;;53.57;22.33;;;;;;;-145.69;100.00;52563.22;5116305;28;20208;-80
2023/03/02 04:01:33;;;;;;;60.70;22.40;;;;;;;-145.69;100.00;52563.22;5116997;28;20558;-80
2023/03/02 04:04:00;;;;;;;55.77;21.73;;;;;;;-145.69;100.00;52535.47;5116993;28;20225;-81
2023/03/02 04:06:27;;;;;;;64.37;23.03;;;;;;;-145.69;100.00;52567.16;5117507;28;20212;-80
2023/03/02 04:08:53;;;;;;;57.67;22.13;;;;;;;-145.69;100.00;52581.03;5117022;28;20194;-81
2023/03/02 04:11:23;;;;;;;57.73;22.07;;;;;;;-145.69;100.00;52531.53;5116653;28;20197;-80
2023/03/02 04:13:56;;;;;;;54.40;22.47;;;;;;;-145.69;100.00;52559.25;5116719;28;20212;-81
2023/03/02 04:16:22;;;;;;;59.60;22.80;;;;;;;-145.69;100.00;52569.16;5116970;28;20228;-81
2023/03/02 04:18:49;;;;;;;58.33;23.03;;;;;;;-145.69;100.00;52551.31;5116913;28;20208;-81
2023/03/02 04:21:15;;;;;;;60.60;22.37;;;;;;;-145.69;100.00;52553.31;5116843;28;20202;-81
2023/03/02 04:23:45;;;;;;;58.40;22.97;;;;;;;-145.69;100.00;52547.38;5116484;28;20232;-81
2023/03/02 04:26:11;;;;;;;56.73;22.83;;;;;;;-145.69;100.00;52545.38;5116188;28;20644;-81
2023/03/02 04:28:38;;;;;;;55.17;21.70;;;;;;;-145.69;100.00;52586.97;5116544;28;20559;-80
2023/03/02 04:31:06;;;;;;;54.33;22.20;;;;;;;-145.69;100.00;52563.22;5116212;28;20201;-80
2023/03/02 04:33:33;;;;;;;54.17;23.17;;;;;;;-145.69;100.00;52523.59;5115887;28;20577;-80
2023/03/02 04:35:59;;;;;;;53.23;23.00;;;;;;;-145.69;100.00;52559.25;5116336;28;20204;-80
2023/03/02 04:38:28;;;;;;;57.93;23.10;;;;;;;-145.69;100.00;52547.38;5114944;28;20202;-80
2023/03/02 04:40:57;;;;;;;63.83;22.83;;;;;;;-145.69;100.00;52594.91;5115397;28;20692;-81
2023/03/02 04:43:25;;;;;;;56.00;21.13;;;;;;;-145.69;100.00;52559.25;5115164;28;20308;-80
2023/03/02 04:45:54;;;;;;;58.97;21.70;;;;;;;-145.69;100.00;52551.31;5116209;28;20228;-81
2023/03/02 04:48:26;;;;;;;56.10;21.67;;;;;;;-145.69;100.00;52557.28;5115787;28;20201;-80
2023/03/02 04:50:52;;;;;;;57.63;22.17;;;;;;;-145.69;100.00;52525.59;5116043;28;20265;-79
2023/03/02 04:53:19;;;;;;;53.50;21.90;;;;;;;-145.69;100.00;52527.56;5115909;28;20232;-80
2023/03/02 04:55:47;;;;;;;63.70;23.13;;;;;;;-145.69;100.00;52547.38;5115157;28;20201;-80
2023/03/02 04:58:17;;;;;;;54.97;21.37;;;;;;;-145.69;100.00;52559.25;5115717;28;20284;-81
2023/03/02 05:00:43;;;;;;;57.27;22.30;;;;;;;-145.69;100.00;52531.53;5109084;28;20198;-81
2023/03/02 05:03:13;;;;;;;55.07;22.03;;;;;;;-145.69;100.00;52527.56;5095409;28;20198;-81
2023/03/02 05:05:44;;;;;;;59.47;22.10;;;;;;;-145.69;100.00;52543.41;5095125;28;20293;-82
2023/03/02 05:08:11;;;;;;;60.73;22.23;;;;;;;-145.69;100.00;52547.38;5095231;28;20201;-81
2023/03/02 05:10:37;;;;;;;55.23;22.90;;;;;;;-145.69;100.00;52579.06;5100454;28;20271;-80
2023/03/02 05:13:04;;;;;;;59.67;23.13;;;;;;;-145.69;100.00;52571.13;5115225;28;20196;-80
2023/03/02 05:15:34;;;;;;;55.37;22.47;;;;;;;-145.69;100.00;52539.44;5115290;28;20202;-80
2023/03/02 05:18:02;;;;;;;64.83;23.23;;;;;;;-145.69;100.00;52529.53;5115122;28;20205;-81
2023/03/02 05:20:31;;;;;;;62.20;24.20;;;;;;;-145.69;100.00;52541.44;5115172;28;20216;-81
2023/03/02 05:23:02;;;;;;;55.93;22.57;;;;;;;-145.69;100.00;52559.25;5115284;28;20237;-80
2023/03/02 05:25:34;;;;;;;60.57;22.03;;;;;;;-145.69;100.00;52569.16;5115089;28;20221;-81
2023/03/02 05:28:01;;;;;;;67.73;23.07;;;;;;;-145.69;100.00;52567.16;5115588;28;20197;-82
2023/03/02 05:30:36;;;;;;;59.33;22.43;;;;;;;-145.69;100.00;52539.44;5115825;28;20205;-82
2023/03/02 05:33:03;;;;;;;53.57;21.93;;;;;;;-145.69;100.00;52547.38;5115529;28;20604;-82
2023/03/02 05:35:35;;;;;;;59.43;22.57;;;;;;;-145.69;100.00;52563.22;5115321;28;20197;-81
2023/03/02 05:38:10;;;;;;;57.63;21.87;;;;;;;-145.69;100.00;52559.25;5115958;28;20241;-80
2023/03/02 05:40:39;;;;;;;58.17;22.70;;;;;;;-145.69;100.00;52547.38;5115713;28;20287;-82
2023/03/02 05:43:17;;;;;;;54.47;20.93;;;;;;;-145.69;100.00;52549.34;5096992;28;20724;-81
2023/03/02 05:45:46;;;;;;;55.77;21.67;;;;;;;-145.69;100.00;52565.19;5115599;28;20197;-82
2023/03/02 05:48:13;;;;;;;51.50;21.67;;;;;;;-145.69;100.00;52557.28;5116414;28;20203;-82
2023/03/02 05:50:40;;;;;;;50.87;21.37;;;;;;;-145.69;100.00;52561.22;5116714;28;20209;-82
2023/03/02 05:53:08;;;;;;;55.17;21.73;;;;;;;-145.69;100.00;52594.91;5115861;28;20200;-82
2023/03/02 05:55:35;;;;;;;50.10;20.27;;;;;;;-145.69;100.00;52555.28;5115899;28;20189;-82
2023/03/02 05:58:06;;;;;;;54.70;22.90;;;;;;;-145.69;100.00;52583.00;5116143;28;20283;-82
2023/03/02 06:00:32;;;;;;;55.30;21.47;;;;;;;-145.69;100.00;52543.41;5115223;28;20240;-82
2023/03/02 06:02:59;;;;;;;56.07;22.43;;;;;;;-145.69;100.00;52565.19;5095499;28;20289;-82
2023/03/02 06:05:28;;;;;;;63.93;22.90;;;;;;;-145.69;100.00;52539.44;5099156;28;20400;-82
2023/03/02 06:07:57;;;;;;;56.77;21.87;;;;;;;-145.69;100.00;52551.31;5080408;28;20250;-83
2023/03/02 06:10:26;;;;;;;61.17;23.50;;;;;;;-145.69;100.00;52571.13;5097634;28;20201;-83
2023/03/02 06:12:52;;;;;;;56.93;23.43;;;;;;;-145.69;100.00;52559.25;5098592;28;20222;-82
2023/03/02 06:15:19;;;;;;;58.33;23.17;;;;;;;-145.69;100.00;52563.22;5099976;28;20537;-82
2023/03/02 06:17:46;;;;;;;58.53;23.37;;;;;;;-145.69;100.00;52565.19;5097759;28;20208;-82
2023/03/02 06:20:13;;;;;;;62.37;22.17;;;;;;;-145.69;100.00;52531.53;5094581;28;20285;-81
2023/03/02 06:22:45;;;;;;;60.67;23.00;;;;;;;-145.69;100.00;52602.81;5096172;28;20304;-82
2023/03/02 06:25:14;;;;;;;63.27;24.40;;;;;;;-145.69;100.00;52541.44;5114652;28;20223;-81
2023/03/02 06:27:43;;;;;;;61.47;23.63;;;;;;;-145.69;100.00;52565.19;5114444;28;20194;-82
2023/03/02 06:30:14;;;;;;;66.63;23.57;;;;;;;-145.69;100.00;52521.63;5114046;28;20212;-80
2023/03/02 06:32:41;;;;;;;55.20;22.37;;;;;;;-145.69;100.00;52565.19;5113892;28;20194;-81
2023/03/02 06:35:09;;;;;;;61.33;23.73;;;;;;;-145.69;100.00;52535.47;5114204;28;20193;-81
2023/03/02 06:37:36;;;;;;;56.87;22.70;;;;;;;-145.69;100.00;52555.28;5114136;28;20201;-81
2023/03/02 06:40:09;;;;;;;60.53;23.50;;;;;;;-145.69;100.00;52551.31;5113922;28;20228;-81
2023/03/02 06:42:39;;;;;;;65.63;25.03;;;;;;;-145.69;100.00;52571.13;5113898;28;20201;-81
2023/03/02 06:45:10;;;;;;;58.90;23.07;;;;;;;-145.69;100.00;52575.09;5114066;28;20246;-81
2023/03/02 06:47:40;;;;;;;62.27;22.83;;;;;;;-145.69;100.00;52577.06;5114407;28;20207;-80
2023/03/02 06:50:08;;;;;;;50.33;21.00;;;;;;;-145.69;100.00;52547.38;5113787;28;20205;-80
2023/03/02 06:52:37;;;;;;;49.47;20.93;;;;;;;-145.69;100.00;52557.28;5113766;28;20675;-81
2023/03/02 06:55:05;;;;;;;47.13;21.50;;;;;;;-145.69;100.00;52559.25;5114319;28;20201;-82
2023/03/02 06:57:33;;;;;;;49.47;20.93;;;;;;;-145.69;100.00;52579.06;5114708;28;20201;-81
2023/03/02 07:00:01;;;;;;;49.33;20.90;;;;;;;-145.69;100.00;52581.03;5114542;28;20605;-80
2023/03/02 07:02:28;;;;;;;58.37;23.17;;;;;;;-145.69;100.00;52551.31;5112876;28;20200;-80
2023/03/02 07:04:55;;;;;;;51.97;21.63;;;;;;;-145.69;100.00;52569.16;5114636;28;20225;-81
2023/03/02 07:07:23;;;;;;;55.27;21.00;;;;;;;-145.69;100.00;52563.22;5114009;28;20205;-81
2023/03/02 07:09:50;;;;;;;52.63;20.70;;;;;;;-145.69;100.00;52535.47;5114569;28;20190;-81
2023/03/02 07:12:21;;;;;;;55.57;22.57;;;;;;;-145.69;100.00;52551.31;5114118;28;20652;-80
2023/03/02 07:14:48;;;;;;;51.30;21.90;;;;;;;-145.69;100.00;52555.28;5112950;28;20544;-80
2023/03/02 07:17:14;;;;;;;58.57;22.00;;;;;;;-145.69;100.00;52557.28;5113434;28;20205;-80
2023/03/02 07:19:45;;;;;;;58.03;22.90;;;;;;;-145.69;100.00;52573.13;5114818;28;20193;-81
2023/03/02 07:22:12;;;;;;;49.87;22.17;;;;;;;-145.69;100.00;52529.53;5113889;28;20193;-80
2023/03/02 07:24:40;;;;;;;55.50;22.00;;;;;;;-145.69;100.00;52565.19;5114091;28;20221;-80
2023/03/02 07:27:07;;;;;;;52.87;20.87;;;;;;;-145.69;100.00;52555.28;5114046;28;20197;-80
2023/03/02 07:29:33;;;;;;;47.83;20.97;;;;;;;-145.69;100.00;52563.22;5114115;28;20197;-81
2023/03/02 07:32:00;;;;;;;54.10;21.73;;;;;;;-145.69;100.00;52569.16;5114201;28;20205;-81
2023/03/02 07:34:27;;;;;;;53.57;22.20;;;;;;;-145.69;100.00;52565.19;5116925;28;20204;-81
2023/03/02 07:36:55;;;;;;;52.83;22.03;;;;;;;-145.69;100.00;52590.94;5117331;28;20233;-81
2023/03/02 07:39:21;;;;;;;54.50;20.27;;;;;;;-145.69;100.00;52575.09;5116634;28;20701;-81
2023/03/02 07:41:48;;;;;;;54.77;21.43;;;;;;;-145.69;100.00;52586.97;5116395;28;20225;-80
2023/03/02 07:44:14;;;;;;;54.07;21.63;;;;;;;-145.69;100.00;52557.28;5114681;28;20575;-80
2023/03/02 07:46:41;;;;;;;57.03;21.47;;;;;;;-145.69;100.00;52553.31;5115507;28;20197;-80
2023/03/02 07:49:07;;;;;;;50.83;20.93;;;;;;;-145.69;100.00;52569.16;5116417;28;20198;-81
2023/03/02 07:51:34;;;;;;;50.40;22.03;;;;;;;-145.69;100.00;52575.09;5116511;28;20201;-82
2023/03/02 07:54:03;;;;;;;49.93;21.33;;;;;;;-145.69;100.00;52535.47;5115936;28;20201;-82
2023/03/02 07:56:30;;;;;;;54.63;21.67;;;;;;;-145.69;100.00;52561.22;5116273;28;20205;-82
2023/03/02 07:58:56;;;;;;;50.07;20.77;;;;;;;-145.69;100.00;52555.28;5116608;28;20223;-82
2023/03/02 08:01:23;;;;;;;54.93;20.97;;;;;;;-145.69;100.00;52539.44;5116684;28;20205;-82
2023/03/02 08:03:49;;;;;;;53.40;22.13;;;;;;;-145.69;100.00;52545.38;5115342;28;20209;-82
2023/03/02 08:06:16;;;;;;;52.17;21.93;;;;;;;-145.69;100.00;52586.97;5115125;28;20225;-81
2023/03/02 08:08:43;;;;;;;48.80;20.30;;;;;;;-145.69;100.00;52569.16;5115303;28;20210;-82
2023/03/02 08:11:13;;;;;;;52.45;23.70;;;;;;;-145.69;100.00;52555.28;5113221;28;20456;-81
2023/03/02 08:13:40;;;;;;;55.50;22.47;;;;;;;-145.69;100.00;52559.25;5104218;28;20648;-82
2023/03/02 08:16:09;;;;;;;124.47;43.13;;;;;;;-145.69;100.00;52535.47;5117487;28;20207;-82
2023/03/02 08:18:36;;;;;;;54.60;22.57;;;;;;;-145.69;100.00;52527.56;5100399;28;20275;-81
2023/03/02 08:21:04;;;;;;;57.70;24.30;;;;;;;-145.69;100.00;52535.47;5117294;28;20201;-80
2023/03/02 08:23:30;;;;;;;53.90;21.77;;;;;;;-145.69;100.00;52533.50;5116901;28;20568;-80
2023/03/02 08:25:57;;;;;;;60.47;21.13;;;;;;;-145.69;100.00;52547.38;5116930;28;20220;-83
2023/03/02 08:28:25;;;;;;;55.17;21.47;;;;;;;-145.69;100.00;52543.41;5099021;28;20644;-80
2023/03/02 08:30:57;;;;;;;57.13;24.83;;;;;;;-145.69;100.00;52575.09;5116274;28;20537;-80
2023/03/02 08:33:24;;;;;;;51.63;22.43;;;;;;;-145.69;100.00;52573.13;5116522;28;20667;-80
2023/03/02 08:35:55;;;;;;;56.47;21.23;;;;;;;-145.69;100.00;52565.19;5116159;28;20201;-81
2023/03/02 08:38:22;;;;;;;44.70;19.57;;;;;;;-145.69;100.00;52575.09;5116320;28;20193;-80
2023/03/02 08:40:50;;;;;;;50.67;21.77;;;;;;;-145.69;100.00;52543.41;5115797;28;20224;-80
2023/03/02 08:43:16;;;;;;;53.47;22.27;;;;;;;-145.69;100.00;52539.44;5126637;27;20288;-80
2023/03/02 08:45:44;;;;;;;57.70;20.60;;;;;;;-145.69;100.00;52551.31;5136549;27;20593;-80
2023/03/02 08:48:11;;;;;;;47.13;21.70;;;;;;;-145.69;100.00;52586.97;5128410;27;20624;-79
2023/03/02 08:50:37;;;;;;;50.07;21.60;;;;;;;-145.69;100.00;52571.13;5113420;28;20206;-81
2023/03/02 08:53:03;;;;;;;49.20;21.10;;;;;;;-145.69;100.00;52583.00;5115835;28;20196;-81
2023/03/02 08:55:30;;;;;;;56.30;20.33;;;;;;;-145.69;100.00;52535.47;5117639;28;20675;-82
2023/03/02 08:57:56;;;;;;;51.13;20.37;;;;;;;-145.69;100.00;52555.28;5123340;27;20201;-81
2023/03/02 09:00:23;;;;;;;53.57;21.00;;;;;;;-145.69;100.00;52541.44;5131554;27;20200;-81
2023/03/02 09:02:51;;;;;;;52.67;21.93;;;;;;;-145.69;100.00;52553.31;5116001;27;20197;-81
2023/03/02 09:05:18;;;;;;;52.27;21.90;;;;;;;-145.69;100.00;52543.41;5098425;28;20595;-80
2023/03/02 09:07:44;;;;;;;54.80;21.30;;;;;;;-145.69;100.00;52555.28;5115964;28;20199;-82
2023/03/02 09:10:11;;;;;;;50.07;21.17;;;;;;;-145.69;100.00;52559.25;5115992;28;20193;-83
2023/03/02 09:12:37;;;;;;;60.00;22.37;;;;;;;-145.69;100.00;52571.13;5120411;28;20190;-80
2023/03/02 09:15:05;;;;;;;56.03;20.63;;;;;;;-145.69;100.00;52549.34;5122743;28;20201;-83
2023/03/02 09:17:31;;;;;;;50.97;21.10;;;;;;;-145.69;100.00;52535.47;5122514;28;20221;-82
2023/03/02 09:19:59;;;;;;;47.70;20.23;;;;;;;-145.69;100.00;52555.28;5115131;28;20208;-83
2023/03/02 09:22:27;;;;;;;50.83;21.00;;;;;;;-145.69;100.00;52535.47;5117257;28;20229;-83
2023/03/02 09:24:54;;;;;;;47.07;20.80;;;;;;;-145.69;100.00;52515.69;5115141;28;20801;-84
2023/03/02 09:27:20;;;;;;;45.47;20.00;;;;;;;-145.69;100.00;52553.31;5115728;28;20197;-86
2023/03/02 09:29:47;;;;;;;49.30;20.73;;;;;;;-145.69;100.00;52561.22;5115881;28;20225;-84
2023/03/02 09:32:14;;;;;;;46.60;20.33;;;;;;;-145.69;100.00;52539.44;5115279;28;20204;-83
2023/03/02 09:34:41;;;;;;;47.37;20.37;;;;;;;-145.69;100.00;52519.63;5115529;28;20744;-83
2023/03/02 09:37:09;;;;;;;52.80;22.37;;;;;;;-145.69;100.00;52513.69;5115145;28;20444;-81
2023/03/02 09:39:37;;;;;;;49.17;20.70;;;;;;;-145.69;100.00;52531.53;5115780;28;20186;-82
2023/03/02 09:42:30;;;;;;;46.27;20.70;;;;;;;-145.69;100.00;52533.50;5115127;28;20699;-82
2023/03/02 09:45:09;;;;;;;47.43;19.53;;;;;;;-145.69;100.00;52561.22;5115593;28;20251;-80
2023/03/02 09:47:43;;;;;;;44.37;19.23;;;;;;;-145.69;100.00;52533.50;5111848;28;20276;-78
2023/03/02 09:50:25;;;;;;;46.07;19.80;;;;;;;-145.69;100.00;52555.28;5114508;28;20250;-78
2023/03/02 09:53:08;;;;;;;53.53;21.73;;;;;;;-145.69;100.00;52579.06;5114734;28;20254;-79
2023/03/02 09:55:36;;;;;;;50.37;21.10;;;;;;;-145.69;100.00;52545.38;5114307;28;20196;-79
2023/03/02 09:58:06;;;;;;;50.50;21.90;;;;;;;-145.69;100.00;52577.06;5114239;28;20209;-80
2023/03/02 10:00:37;;;;;;;53.47;20.73;;;;;;;-145.69;100.00;52553.31;5114672;28;20193;-78
2023/03/02 10:03:07;;;;;;;58.43;21.07;;;;;;;-145.69;100.00;52527.56;5114338;28;20201;-79
2023/03/02 10:05:38;;;;;;;56.23;21.77;;;;;;;-145.69;100.00;52563.22;5114494;28;20221;-79
2023/03/02 10:08:12;;;;;;;53.27;21.53;;;;;;;-145.69;100.00;52551.31;5113833;28;20197;-79
2023/03/02 10:10:45;;;;;;;50.90;21.80;;;;;;;-145.69;100.00;52535.47;5097784;28;20202;-79
2023/03/02 10:13:22;;;;;;;52.90;20.80;;;;;;;-145.69;100.00;52551.31;5114113;28;20201;-79
2023/03/02 10:15:59;;;;;;;50.37;20.10;;;;;;;-145.69;100.00;52545.38;5114071;28;20555;-78
2023/03/02 10:18:32;;;;;;;50.50;20.57;;;;;;;-145.69;100.00;52559.25;5110144;28;20556;-79
2023/03/02 10:21:03;;;;;;;47.03;19.87;;;;;;;-145.69;100.00;52525.59;5114084;28;20213;-79
2023/03/02 10:23:46;;;;;;;47.07;19.63;;;;;;;-145.69;100.00;52553.31;5093646;28;20198;-78
2023/03/02 10:26:23;;;;;;;50.07;21.73;;;;;;;-145.69;100.00;52571.13;5102168;28;20587;-79
2023/03/02 10:28:58;;;;;;;52.47;20.63;;;;;;;-145.69;100.00;52525.59;5113701;28;20655;-79
2023/03/02 10:31:27;;;;;;;46.47;19.77;;;;;;;-145.69;100.00;52535.47;5112767;28;20201;-79
2023/03/02 10:33:55;;;;;;;49.00;20.43;;;;;;;-145.69;100.00;52505.78;5113869;28;20208;-78
2023/03/02 10:36:24;;;;;;;48.60;20.70;;;;;;;-145.69;100.00;52539.44;5112730;28;20232;-79
2023/03/02 10:38:53;;;;;;;44.17;18.60;;;;;;;-145.69;100.00;52539.44;5113741;28;20193;-79
2023/03/02 10:41:25;;;;;;;52.97;21.07;;;;;;;-145.69;100.00;52547.38;5113510;28;20691;-79
2023/03/02 10:43:54;;;;;;;46.17;20.43;;;;;;;-145.69;100.00;52537.47;5113489;28;20208;-79
2023/03/02 10:46:21;;;;;;;46.87;20.40;;;;;;;-145.69;100.00;52549.34;5112830;28;20229;-79
2023/03/02 10:48:52;;;;;;;45.57;19.20;;;;;;;-145.69;100.00;52515.69;5110323;28;20208;-79
2023/03/02 10:51:24;;;;;;;64.17;22.63;;;;;;;-145.69;100.00;52517.66;5113690;28;20208;-79
2023/03/02 10:54:02;;;;;;;45.53;20.80;;;;;;;-145.69;100.00;52547.38;5113415;28;20533;-79
2023/03/02 10:56:30;;;;;;;47.53;20.90;;;;;;;-145.69;100.00;52531.53;5113493;28;20197;-79
2023/03/02 10:59:01;;;;;;;44.97;20.43;;;;;;;-145.69;100.00;52551.31;5113928;28;20205;-79
2023/03/02 11:01:29;;;;;;;51.17;21.27;;;;;;;-145.69;100.00;52503.81;5113845;28;20239;-79
2023/03/02 11:03:57;;;;;;;46.47;20.50;;;;;;;-145.69;100.00;52521.63;5113158;28;20532;-79